sensor_id;sensor_type;location;lat;lon;timestamp;pressure;altitude;pressure_sealevel;temperature;humidity
64711;BME280;51139;45.626;6.850;2023-05-07T00:01:01;82121.03;;;9.82;75.19
64711;BME280;51139;45.626;6.850;2023-05-07T00:03:26;82125.44;;;9.79;75.50
64711;BME280;51139;45.626;6.850;2023-05-07T00:05:52;82121.72;;;9.82;75.24
64711;BME280;51139;45.626;6.850;2023-05-07T00:08:18;82125.59;;;9.81;75.31
64711;BME280;51139;45.626;6.850;2023-05-07T00:10:44;82128.56;;;9.68;75.69
64711;BME280;51139;45.626;6.850;2023-05-07T00:13:09;82120.63;;;9.85;74.44
64711;BME280;51139;45.626;6.850;2023-05-07T00:15:35;82124.38;;;10.17;73.44
64711;BME280;51139;45.626;6.850;2023-05-07T00:18:01;82121.25;;;9.93;73.21
64711;BME280;51139;45.626;6.850;2023-05-07T00:20:26;82111.28;;;10.19;73.63
64711;BME280;51139;45.626;6.850;2023-05-07T00:22:51;82113.13;;;10.99;67.76
64711;BME280;51139;45.626;6.850;2023-05-07T00:25:17;82113.59;;;11.05;68.08
64711;BME280;51139;45.626;6.850;2023-05-07T00:27:44;82119.22;;;10.92;66.92
64711;BME280;51139;45.626;6.850;2023-05-07T00:30:10;82106.25;;;11.23;66.57
64711;BME280;51139;45.626;6.850;2023-05-07T00:32:36;82117.50;;;11.61;63.47
64711;BME280;51139;45.626;6.850;2023-05-07T00:35:02;82113.47;;;11.60;61.39
64711;BME280;51139;45.626;6.850;2023-05-07T00:37:27;82111.53;;;10.86;62.31
64711;BME280;51139;45.626;6.850;2023-05-07T00:39:53;82102.63;;;10.91;63.14
64711;BME280;51139;45.626;6.850;2023-05-07T00:42:18;82112.56;;;10.63;64.11
64711;BME280;51139;45.626;6.850;2023-05-07T00:44:43;82106.13;;;10.39;64.85
64711;BME280;51139;45.626;6.850;2023-05-07T00:47:09;82100.50;;;10.35;65.51
64711;BME280;51139;45.626;6.850;2023-05-07T00:49:39;82099.19;;;10.44;65.56
64711;BME280;51139;45.626;6.850;2023-05-07T00:52:11;82099.19;;;10.26;65.93
64711;BME280;51139;45.626;6.850;2023-05-07T00:54:37;82098.16;;;10.39;65.09
64711;BME280;51139;45.626;6.850;2023-05-07T00:57:03;82090.88;;;10.85;63.52
64711;BME280;51139;45.626;6.850;2023-05-07T00:59:30;82090.50;;;10.88;62.90
64711;BME280;51139;45.626;6.850;2023-05-07T01:01:56;82090.03;;;11.19;62.09
64711;BME280;51139;45.626;6.850;2023-05-07T01:04:22;82101.06;;;11.16;61.96
64711;BME280;51139;45.626;6.850;2023-05-07T01:06:47;82095.22;;;10.90;61.46
64711;BME280;51139;45.626;6.850;2023-05-07T01:09:13;82097.19;;;10.89;61.20
64711;BME280;51139;45.626;6.850;2023-05-07T01:11:39;82096.78;;;10.93;60.19
64711;BME280;51139;45.626;6.850;2023-05-07T01:14:05;82093.44;;;10.65;61.36
64711;BME280;51139;45.626;6.850;2023-05-07T01:16:32;82091.69;;;9.87;66.42
64711;BME280;51139;45.626;6.850;2023-05-07T01:18:58;82091.59;;;9.60;69.28
64711;BME280;51139;45.626;6.850;2023-05-07T01:21:25;82096.97;;;9.34;70.97
64711;BME280;51139;45.626;6.850;2023-05-07T01:23:52;82086.94;;;9.68;70.44
64711;BME280;51139;45.626;6.850;2023-05-07T01:26:18;82085.56;;;9.85;68.24
64711;BME280;51139;45.626;6.850;2023-05-07T01:28:45;82080.31;;;9.95;66.58
64711;BME280;51139;45.626;6.850;2023-05-07T01:31:12;82079.06;;;9.96;65.65
64711;BME280;51139;45.626;6.850;2023-05-07T01:33:40;82087.84;;;10.16;64.87
64711;BME280;51139;45.626;6.850;2023-05-07T01:36:06;82083.56;;;10.03;65.06
64711;BME280;51139;45.626;6.850;2023-05-07T01:38:34;82083.19;;;10.06;65.11
64711;BME280;51139;45.626;6.850;2023-05-07T01:41:02;82081.34;;;9.99;65.81
64711;BME280;51139;45.626;6.850;2023-05-07T01:43:28;82078.81;;;10.19;65.87
64711;BME280;51139;45.626;6.850;2023-05-07T01:45:55;82079.69;;;10.76;63.07
64711;BME280;51139;45.626;6.850;2023-05-07T01:48:21;82077.50;;;10.83;62.55
64711;BME280;51139;45.626;6.850;2023-05-07T01:50:47;82076.97;;;10.94;61.44
64711;BME280;51139;45.626;6.850;2023-05-07T01:53:13;82076.28;;;10.39;63.52
64711;BME280;51139;45.626;6.850;2023-05-07T01:55:38;82069.53;;;9.83;67.21
64711;BME280;51139;45.626;6.850;2023-05-07T01:58:05;82059.09;;;9.32;69.79
64711;BME280;51139;45.626;6.850;2023-05-07T02:00:31;82062.16;;;9.03;72.50
64711;BME280;51139;45.626;6.850;2023-05-07T02:02:57;82064.09;;;9.02;73.43
64711;BME280;51139;45.626;6.850;2023-05-07T02:05:22;82065.19;;;9.17;73.60
64711;BME280;51139;45.626;6.850;2023-05-07T02:07:48;82058.00;;;9.35;72.11
64711;BME280;51139;45.626;6.850;2023-05-07T02:10:13;82062.91;;;9.56;69.69
64711;BME280;51139;45.626;6.850;2023-05-07T02:12:38;82062.34;;;9.58;69.43
64711;BME280;51139;45.626;6.850;2023-05-07T02:15:04;82055.25;;;9.96;68.92
64711;BME280;51139;45.626;6.850;2023-05-07T02:17:30;82048.53;;;10.12;66.82
64711;BME280;51139;45.626;6.850;2023-05-07T02:19:58;82050.69;;;9.61;70.27
64711;BME280;51139;45.626;6.850;2023-05-07T02:22:23;82046.19;;;9.54;71.39
64711;BME280;51139;45.626;6.850;2023-05-07T02:24:50;82041.91;;;9.41;71.62
64711;BME280;51139;45.626;6.850;2023-05-07T02:27:15;82054.81;;;9.37;71.11
64711;BME280;51139;45.626;6.850;2023-05-07T02:29:42;82058.16;;;9.37;71.35
64711;BME280;51139;45.626;6.850;2023-05-07T02:32:07;82050.63;;;9.51;71.25
64711;BME280;51139;45.626;6.850;2023-05-07T02:34:32;82052.09;;;9.27;71.79
64711;BME280;51139;45.626;6.850;2023-05-07T02:36:58;82050.69;;;9.43;71.30
64711;BME280;51139;45.626;6.850;2023-05-07T02:39:23;82057.47;;;9.37;71.23
64711;BME280;51139;45.626;6.850;2023-05-07T02:41:49;82052.28;;;9.03;72.24
64711;BME280;51139;45.626;6.850;2023-05-07T02:44:15;82053.44;;;8.93;73.46
64711;BME280;51139;45.626;6.850;2023-05-07T02:46:41;82053.97;;;8.91;73.37
64711;BME280;51139;45.626;6.850;2023-05-07T02:49:06;82046.31;;;8.78;74.82
64711;BME280;51139;45.626;6.850;2023-05-07T02:51:31;82051.38;;;8.83;75.33
64711;BME280;51139;45.626;6.850;2023-05-07T02:53:57;82050.72;;;9.00;75.05
64711;BME280;51139;45.626;6.850;2023-05-07T02:56:22;82050.84;;;8.85;75.57
64711;BME280;51139;45.626;6.850;2023-05-07T02:58:48;82045.41;;;8.83;75.47
64711;BME280;51139;45.626;6.850;2023-05-07T03:01:13;82046.53;;;8.97;74.37
64711;BME280;51139;45.626;6.850;2023-05-07T03:03:39;82042.97;;;8.77;73.35
64711;BME280;51139;45.626;6.850;2023-05-07T03:06:06;82036.28;;;8.76;74.18
64711;BME280;51139;45.626;6.850;2023-05-07T03:08:32;82028.91;;;8.74;74.32
64711;BME280;51139;45.626;6.850;2023-05-07T03:10:58;82033.94;;;8.63;74.50
64711;BME280;51139;45.626;6.850;2023-05-07T03:13:23;82030.63;;;8.80;73.93
64711;BME280;51139;45.626;6.850;2023-05-07T03:15:48;82037.28;;;9.06;72.11
64711;BME280;51139;45.626;6.850;2023-05-07T03:18:14;82043.22;;;9.14;70.88
64711;BME280;51139;45.626;6.850;2023-05-07T03:20:39;82028.75;;;8.98;71.99
64711;BME280;51139;45.626;6.850;2023-05-07T03:23:05;82029.81;;;8.95;74.08
64711;BME280;51139;45.626;6.850;2023-05-07T03:25:31;82024.28;;;8.83;73.74
64711;BME280;51139;45.626;6.850;2023-05-07T03:27:56;82024.59;;;8.87;73.27
64711;BME280;51139;45.626;6.850;2023-05-07T03:30:22;82025.47;;;9.07;72.74
64711;BME280;51139;45.626;6.850;2023-05-07T03:32:47;82035.03;;;9.20;72.67
64711;BME280;51139;45.626;6.850;2023-05-07T03:35:13;82028.13;;;9.42;71.16
64711;BME280;51139;45.626;6.850;2023-05-07T03:37:38;82034.56;;;9.84;66.96
64711;BME280;51139;45.626;6.850;2023-05-07T03:40:05;82037.78;;;9.83;68.58
64711;BME280;51139;45.626;6.850;2023-05-07T03:42:31;82042.84;;;10.16;67.99
64711;BME280;51139;45.626;6.850;2023-05-07T03:44:56;82041.63;;;10.44;65.12
64711;BME280;51139;45.626;6.850;2023-05-07T03:47:21;82042.41;;;10.37;63.82
64711;BME280;51139;45.626;6.850;2023-05-07T03:49:47;82044.84;;;10.25;63.66
64711;BME280;51139;45.626;6.850;2023-05-07T03:52:14;82043.78;;;10.56;63.11
64711;BME280;51139;45.626;6.850;2023-05-07T03:54:39;82053.22;;;10.49;63.34
64711;BME280;51139;45.626;6.850;2023-05-07T03:57:05;82050.41;;;10.19;63.95
64711;BME280;51139;45.626;6.850;2023-05-07T03:59:30;82053.38;;;10.51;63.69
64711;BME280;51139;45.626;6.850;2023-05-07T04:01:57;82053.28;;;10.14;63.99
64711;BME280;51139;45.626;6.850;2023-05-07T04:04:22;82053.56;;;9.73;65.48
64711;BME280;51139;45.626;6.850;2023-05-07T04:06:48;82054.75;;;9.80;66.15
64711;BME280;51139;45.626;6.850;2023-05-07T04:09:13;82055.22;;;10.13;65.40
64711;BME280;51139;45.626;6.850;2023-05-07T04:11:39;82060.19;;;10.44;63.85
64711;BME280;51139;45.626;6.850;2023-05-07T04:14:05;82056.94;;;10.18;64.91
64711;BME280;51139;45.626;6.850;2023-05-07T04:16:31;82059.72;;;9.40;69.73
64711;BME280;51139;45.626;6.850;2023-05-07T04:18:56;82067.88;;;9.34;69.80
64711;BME280;51139;45.626;6.850;2023-05-07T04:21:21;82055.81;;;9.59;69.10
64711;BME280;51139;45.626;6.850;2023-05-07T04:23:48;82062.25;;;9.13;72.55
64711;BME280;51139;45.626;6.850;2023-05-07T04:26:14;82054.78;;;9.19;71.82
64711;BME280;51139;45.626;6.850;2023-05-07T04:28:40;82047.88;;;9.41;69.63
64711;BME280;51139;45.626;6.850;2023-05-07T04:31:05;82056.25;;;8.95;72.87
64711;BME280;51139;45.626;6.850;2023-05-07T04:33:31;82057.75;;;8.80;74.32
64711;BME280;51139;45.626;6.850;2023-05-07T04:35:57;82058.78;;;8.59;74.11
64711;BME280;51139;45.626;6.850;2023-05-07T04:38:22;82057.81;;;8.72;74.82
64711;BME280;51139;45.626;6.850;2023-05-07T04:40:49;82062.50;;;9.42;70.39
64711;BME280;51139;45.626;6.850;2023-05-07T04:43:14;82061.16;;;10.04;65.21
64711;BME280;51139;45.626;6.850;2023-05-07T04:45:39;82064.38;;;9.67;66.92
64711;BME280;51139;45.626;6.850;2023-05-07T04:48:06;82060.84;;;10.00;66.77
64711;BME280;51139;45.626;6.850;2023-05-07T04:50:32;82063.56;;;10.10;65.98
64711;BME280;51139;45.626;6.850;2023-05-07T04:52:58;82055.28;;;10.41;64.50
64711;BME280;51139;45.626;6.850;2023-05-07T04:55:23;82070.38;;;9.85;67.83
64711;BME280;51139;45.626;6.850;2023-05-07T04:57:48;82070.34;;;10.20;65.90
64711;BME280;51139;45.626;6.850;2023-05-07T05:00:14;82077.47;;;10.45;63.62
64711;BME280;51139;45.626;6.850;2023-05-07T05:02:40;82077.28;;;9.63;67.71
64711;BME280;51139;45.626;6.850;2023-05-07T05:05:06;82074.09;;;9.82;68.64
64711;BME280;51139;45.626;6.850;2023-05-07T05:07:32;82073.78;;;9.43;70.69
64711;BME280;51139;45.626;6.850;2023-05-07T05:09:57;82074.94;;;9.32;71.48
64711;BME280;51139;45.626;6.850;2023-05-07T05:12:23;82078.59;;;9.37;71.83
64711;BME280;51139;45.626;6.850;2023-05-07T05:14:48;82076.03;;;9.29;73.28
64711;BME280;51139;45.626;6.850;2023-05-07T05:17:13;82074.69;;;9.20;72.66
64711;BME280;51139;45.626;6.850;2023-05-07T05:19:39;82079.16;;;9.35;73.00
64711;BME280;51139;45.626;6.850;2023-05-07T05:22:05;82074.03;;;9.55;72.77
64711;BME280;51139;45.626;6.850;2023-05-07T05:24:31;82078.00;;;9.81;71.85
64711;BME280;51139;45.626;6.850;2023-05-07T05:26:56;82073.53;;;10.01;69.08
64711;BME280;51139;45.626;6.850;2023-05-07T05:29:21;82072.34;;;10.30;67.10
64711;BME280;51139;45.626;6.850;2023-05-07T05:31:47;82065.59;;;10.01;63.48
64711;BME280;51139;45.626;6.850;2023-05-07T05:34:13;82060.56;;;9.60;65.33
64711;BME280;51139;45.626;6.850;2023-05-07T05:36:38;82064.44;;;9.95;64.82
64711;BME280;51139;45.626;6.850;2023-05-07T05:39:03;82065.09;;;9.50;67.81
64711;BME280;51139;45.626;6.850;2023-05-07T05:41:29;82060.03;;;9.80;67.66
64711;BME280;51139;45.626;6.850;2023-05-07T05:43:54;82062.03;;;9.89;65.29
64711;BME280;51139;45.626;6.850;2023-05-07T05:46:20;82064.41;;;10.30;63.90
64711;BME280;51139;45.626;6.850;2023-05-07T05:48:45;82058.53;;;10.31;62.73
64711;BME280;51139;45.626;6.850;2023-05-07T05:51:11;82053.25;;;10.31;64.23
64711;BME280;51139;45.626;6.850;2023-05-07T05:53:36;82055.66;;;9.92;69.79
64711;BME280;51139;45.626;6.850;2023-05-07T05:56:02;82056.44;;;9.67;69.44
64711;BME280;51139;45.626;6.850;2023-05-07T05:58:27;82055.19;;;9.51;73.40
64711;BME280;51139;45.626;6.850;2023-05-07T06:00:53;82064.63;;;9.44;76.04
64711;BME280;51139;45.626;6.850;2023-05-07T06:03:18;82052.09;;;9.62;78.47
64711;BME280;51139;45.626;6.850;2023-05-07T06:05:45;82047.81;;;9.67;77.26
64711;BME280;51139;45.626;6.850;2023-05-07T06:08:10;82046.59;;;10.13;70.72
64711;BME280;51139;45.626;6.850;2023-05-07T06:10:37;82054.44;;;10.20;66.87
64711;BME280;51139;45.626;6.850;2023-05-07T06:13:02;82053.09;;;9.67;67.53
64711;BME280;51139;45.626;6.850;2023-05-07T06:15:28;82059.25;;;9.87;69.95
64711;BME280;51139;45.626;6.850;2023-05-07T06:17:53;82061.00;;;10.47;65.15
64711;BME280;51139;45.626;6.850;2023-05-07T06:20:21;82062.59;;;10.32;67.39
64711;BME280;51139;45.626;6.850;2023-05-07T06:22:46;82059.13;;;10.12;69.00
64711;BME280;51139;45.626;6.850;2023-05-07T06:25:11;82053.28;;;10.14;64.97
64711;BME280;51139;45.626;6.850;2023-05-07T06:27:37;82063.50;;;10.72;63.86
64711;BME280;51139;45.626;6.850;2023-05-07T06:30:05;82058.94;;;11.20;63.77
64711;BME280;51139;45.626;6.850;2023-05-07T06:32:31;82067.91;;;10.97;69.41
64711;BME280;51139;45.626;6.850;2023-05-07T06:34:56;82068.78;;;11.66;66.40
64711;BME280;51139;45.626;6.850;2023-05-07T06:37:22;82071.06;;;12.00;62.53
64711;BME280;51139;45.626;6.850;2023-05-07T06:39:47;82062.41;;;11.99;63.10
64711;BME280;51139;45.626;6.850;2023-05-07T06:42:12;82078.03;;;11.95;60.12
64711;BME280;51139;45.626;6.850;2023-05-07T06:44:38;82060.34;;;12.17;59.08
64711;BME280;51139;45.626;6.850;2023-05-07T06:47:03;82071.63;;;11.98;64.91
64711;BME280;51139;45.626;6.850;2023-05-07T06:49:30;82066.75;;;11.18;67.96
64711;BME280;51139;45.626;6.850;2023-05-07T06:51:56;82062.78;;;11.76;66.41
64711;BME280;51139;45.626;6.850;2023-05-07T06:54:22;82055.94;;;12.51;62.59
64711;BME280;51139;45.626;6.850;2023-05-07T06:56:47;82060.03;;;12.33;64.14
64711;BME280;51139;45.626;6.850;2023-05-07T06:59:13;82056.22;;;12.55;61.71
64711;BME280;51139;45.626;6.850;2023-05-07T07:01:38;82060.72;;;12.33;57.93
64711;BME280;51139;45.626;6.850;2023-05-07T07:04:04;82062.84;;;12.05;69.35
64711;BME280;51139;45.626;6.850;2023-05-07T07:06:29;82056.28;;;12.16;66.81
64711;BME280;51139;45.626;6.850;2023-05-07T07:08:57;82057.34;;;12.52;61.98
64711;BME280;51139;45.626;6.850;2023-05-07T07:11:22;82051.75;;;12.58;67.27
64711;BME280;51139;45.626;6.850;2023-05-07T07:13:48;82048.56;;;12.40;69.11
64711;BME280;51139;45.626;6.850;2023-05-07T07:16:13;82061.41;;;12.53;71.80
64711;BME280;51139;45.626;6.850;2023-05-07T07:18:38;82057.75;;;12.59;72.34
64711;BME280;51139;45.626;6.850;2023-05-07T07:21:05;82052.16;;;12.64;72.51
64711;BME280;51139;45.626;6.850;2023-05-07T07:23:30;82056.03;;;12.83;73.09
64711;BME280;51139;45.626;6.850;2023-05-07T07:25:56;82053.94;;;12.81;69.91
64711;BME280;51139;45.626;6.850;2023-05-07T07:28:21;82053.09;;;12.79;69.81
64711;BME280;51139;45.626;6.850;2023-05-07T07:30:47;82054.75;;;12.94;71.68
64711;BME280;51139;45.626;6.850;2023-05-07T07:33:12;82051.44;;;12.83;70.95
64711;BME280;51139;45.626;6.850;2023-05-07T07:35:38;82053.91;;;12.91;69.36
64711;BME280;51139;45.626;6.850;2023-05-07T07:38:03;82050.53;;;13.32;65.66
64711;BME280;51139;45.626;6.850;2023-05-07T07:40:29;82049.84;;;13.32;65.98
64711;BME280;51139;45.626;6.850;2023-05-07T07:42:56;82049.41;;;13.35;64.27
64711;BME280;51139;45.626;6.850;2023-05-07T07:45:22;82051.72;;;13.51;62.71
64711;BME280;51139;45.626;6.850;2023-05-07T07:47:47;82040.81;;;13.47;62.41
64711;BME280;51139;45.626;6.850;2023-05-07T07:50:13;82045.22;;;13.64;66.30
64711;BME280;51139;45.626;6.850;2023-05-07T07:52:38;82042.41;;;13.40;68.22
64711;BME280;51139;45.626;6.850;2023-05-07T07:55:04;82048.44;;;13.62;64.72
64711;BME280;51139;45.626;6.850;2023-05-07T07:57:30;82044.66;;;13.65;63.52
64711;BME280;51139;45.626;6.850;2023-05-07T07:59:55;82045.13;;;12.89;69.78
64711;BME280;51139;45.626;6.850;2023-05-07T08:02:21;82051.19;;;13.11;68.20
64711;BME280;51139;45.626;6.850;2023-05-07T08:04:46;82044.66;;;13.02;75.14
64711;BME280;51139;45.626;6.850;2023-05-07T08:07:12;82038.66;;;13.23;76.17
64711;BME280;51139;45.626;6.850;2023-05-07T08:09:38;82036.53;;;13.00;69.91
64711;BME280;51139;45.626;6.850;2023-05-07T08:12:07;82042.94;;;13.38;67.47
64711;BME280;51139;45.626;6.850;2023-05-07T08:14:33;82041.41;;;13.35;68.43
64711;BME280;51139;45.626;6.850;2023-05-07T08:16:59;82037.41;;;13.56;62.62
64711;BME280;51139;45.626;6.850;2023-05-07T08:19:25;82038.22;;;13.37;66.83
64711;BME280;51139;45.626;6.850;2023-05-07T08:21:50;82047.75;;;13.30;70.51
64711;BME280;51139;45.626;6.850;2023-05-07T08:24:16;82051.88;;;13.11;70.54
64711;BME280;51139;45.626;6.850;2023-05-07T08:26:42;82051.84;;;13.21;69.28
64711;BME280;51139;45.626;6.850;2023-05-07T08:29:08;82050.06;;;13.46;68.05
64711;BME280;51139;45.626;6.850;2023-05-07T08:31:33;82055.06;;;13.83;65.21
64711;BME280;51139;45.626;6.850;2023-05-07T08:33:59;82053.34;;;14.09;64.98
64711;BME280;51139;45.626;6.850;2023-05-07T08:36:25;82048.97;;;14.14;65.51
64711;BME280;51139;45.626;6.850;2023-05-07T08:38:53;82056.97;;;13.70;66.35
64711;BME280;51139;45.626;6.850;2023-05-07T08:41:20;82059.25;;;13.86;65.81
64711;BME280;51139;45.626;6.850;2023-05-07T08:43:48;82055.13;;;13.73;63.46
64711;BME280;51139;45.626;6.850;2023-05-07T08:46:20;82059.63;;;13.39;66.48
64711;BME280;51139;45.626;6.850;2023-05-07T08:48:48;82057.75;;;13.51;69.45
64711;BME280;51139;45.626;6.850;2023-05-07T08:51:16;82062.84;;;13.37;65.97
64711;BME280;51139;45.626;6.850;2023-05-07T08:53:42;82062.75;;;13.57;67.22
64711;BME280;51139;45.626;6.850;2023-05-07T08:56:11;82068.00;;;13.77;61.29
64711;BME280;51139;45.626;6.850;2023-05-07T08:58:37;82069.31;;;13.88;61.82
64711;BME280;51139;45.626;6.850;2023-05-07T09:01:07;82066.53;;;13.22;61.79
64711;BME280;51139;45.626;6.850;2023-05-07T09:03:33;82066.03;;;13.46;72.33
64711;BME280;51139;45.626;6.850;2023-05-07T09:05:59;82069.53;;;13.48;62.45
64711;BME280;51139;45.626;6.850;2023-05-07T09:08:26;82063.41;;;13.67;59.27
64711;BME280;51139;45.626;6.850;2023-05-07T09:10:52;82077.16;;;12.91;59.08
64711;BME280;51139;45.626;6.850;2023-05-07T09:13:18;82084.34;;;12.00;75.26
64711;BME280;51139;45.626;6.850;2023-05-07T09:15:44;82081.22;;;12.82;76.45
64711;BME280;51139;45.626;6.850;2023-05-07T09:18:09;82075.88;;;12.92;75.65
64711;BME280;51139;45.626;6.850;2023-05-07T09:20:39;82085.59;;;13.09;74.70
64711;BME280;51139;45.626;6.850;2023-05-07T09:23:06;82073.72;;;13.41;71.87
64711;BME280;51139;45.626;6.850;2023-05-07T09:25:33;82069.41;;;13.36;74.18
64711;BME280;51139;45.626;6.850;2023-05-07T09:28:04;82069.47;;;13.58;66.67
64711;BME280;51139;45.626;6.850;2023-05-07T09:30:31;82067.75;;;13.31;70.31
64711;BME280;51139;45.626;6.850;2023-05-07T09:33:01;82074.31;;;12.37;80.28
64711;BME280;51139;45.626;6.850;2023-05-07T09:35:27;82065.97;;;12.82;79.28
64711;BME280;51139;45.626;6.850;2023-05-07T09:37:57;82074.75;;;13.36;74.32
64711;BME280;51139;45.626;6.850;2023-05-07T09:40:28;82081.28;;;13.04;71.48
64711;BME280;51139;45.626;6.850;2023-05-07T09:42:54;82078.47;;;13.11;72.87
64711;BME280;51139;45.626;6.850;2023-05-07T09:45:25;82079.84;;;12.61;78.80
64711;BME280;51139;45.626;6.850;2023-05-07T09:47:55;82073.97;;;12.73;83.97
64711;BME280;51139;45.626;6.850;2023-05-07T09:50:27;82077.34;;;13.14;78.82
64711;BME280;51139;45.626;6.850;2023-05-07T09:52:54;82078.84;;;13.27;77.76
64711;BME280;51139;45.626;6.850;2023-05-07T09:55:20;82077.97;;;13.35;76.12
64711;BME280;51139;45.626;6.850;2023-05-07T09:57:45;82078.25;;;13.39;72.40
64711;BME280;51139;45.626;6.850;2023-05-07T10:00:12;82075.56;;;13.39;70.11
64711;BME280;51139;45.626;6.850;2023-05-07T10:02:39;82072.19;;;13.80;74.13
64711;BME280;51139;45.626;6.850;2023-05-07T10:05:12;82075.03;;;12.99;71.86
64711;BME280;51139;45.626;6.850;2023-05-07T10:07:39;82072.66;;;12.93;80.17
64711;BME280;51139;45.626;6.850;2023-05-07T10:10:06;82067.34;;;13.66;81.67
64711;BME280;51139;45.626;6.850;2023-05-07T10:12:32;82075.88;;;13.43;69.26
64711;BME280;51139;45.626;6.850;2023-05-07T10:15:05;82064.38;;;13.72;73.41
64711;BME280;51139;45.626;6.850;2023-05-07T10:17:31;82061.84;;;13.42;74.77
64711;BME280;51139;45.626;6.850;2023-05-07T10:19:57;82063.56;;;13.28;75.14
64711;BME280;51139;45.626;6.850;2023-05-07T10:22:24;82064.59;;;13.86;70.02
64711;BME280;51139;45.626;6.850;2023-05-07T10:24:53;82060.56;;;13.97;71.74
64711;BME280;51139;45.626;6.850;2023-05-07T10:27:22;82062.09;;;14.22;79.67
64711;BME280;51139;45.626;6.850;2023-05-07T10:35:03;82063.00;;;12.98;75.86
64711;BME280;51139;45.626;6.850;2023-05-07T10:37:31;82056.97;;;13.39;78.05
64711;BME280;51139;45.626;6.850;2023-05-07T10:39:57;82053.78;;;13.62;74.53
64711;BME280;51139;45.626;6.850;2023-05-07T10:42:23;82056.78;;;14.00;71.36
64711;BME280;51139;45.626;6.850;2023-05-07T10:44:48;82053.91;;;13.33;67.24
64711;BME280;51139;45.626;6.850;2023-05-07T10:47:15;82047.63;;;13.60;73.59
64711;BME280;51139;45.626;6.850;2023-05-07T10:52:22;82043.44;;;13.25;76.92
64711;BME280;51139;45.626;6.850;2023-05-07T10:57:42;82041.88;;;13.85;73.08
64711;BME280;51139;45.626;6.850;2023-05-07T11:05:31;82039.19;;;14.28;69.43
64711;BME280;51139;45.626;6.850;2023-05-07T11:07:59;82041.28;;;14.30;63.04
64711;BME280;51139;45.626;6.850;2023-05-07T11:10:54;82036.81;;;14.44;64.91
64711;BME280;51139;45.626;6.850;2023-05-07T11:13:43;82030.13;;;14.55;71.29
64711;BME280;51139;45.626;6.850;2023-05-07T11:16:23;82031.75;;;14.49;68.78
64711;BME280;51139;45.626;6.850;2023-05-07T11:18:53;82030.41;;;14.26;74.27
64711;BME280;51139;45.626;6.850;2023-05-07T11:24:04;82018.66;;;14.98;53.02
64711;BME280;51139;45.626;6.850;2023-05-07T11:26:41;82018.44;;;15.06;57.91
64711;BME280;51139;45.626;6.850;2023-05-07T11:29:14;82019.28;;;15.09;60.85
64711;BME280;51139;45.626;6.850;2023-05-07T11:31:40;82008.00;;;15.10;60.66
64711;BME280;51139;45.626;6.850;2023-05-07T11:34:06;82024.63;;;15.32;60.95
64711;BME280;51139;45.626;6.850;2023-05-07T11:36:32;82017.84;;;14.96;68.33
64711;BME280;51139;45.626;6.850;2023-05-07T11:38:58;82019.50;;;15.01;67.17
64711;BME280;51139;45.626;6.850;2023-05-07T11:41:33;82023.63;;;14.80;65.70
64711;BME280;51139;45.626;6.850;2023-05-07T11:43:59;82025.22;;;14.40;67.15
64711;BME280;51139;45.626;6.850;2023-05-07T11:46:25;82023.91;;;14.29;69.82
64711;BME280;51139;45.626;6.850;2023-05-07T11:48:51;82028.09;;;14.66;67.45
64711;BME280;51139;45.626;6.850;2023-05-07T11:51:21;82025.81;;;14.84;65.29
64711;BME280;51139;45.626;6.850;2023-05-07T11:53:47;82020.53;;;14.28;62.59
64711;BME280;51139;45.626;6.850;2023-05-07T11:56:14;82023.66;;;14.25;62.39
64711;BME280;51139;45.626;6.850;2023-05-07T11:58:40;82017.97;;;14.19;63.82
64711;BME280;51139;45.626;6.850;2023-05-07T12:01:08;82025.16;;;13.73;68.48
64711;BME280;51139;45.626;6.850;2023-05-07T12:03:37;82029.44;;;13.56;69.33
64711;BME280;51139;45.626;6.850;2023-05-07T12:06:05;82037.69;;;13.28;73.15
64711;BME280;51139;45.626;6.850;2023-05-07T12:08:30;82044.31;;;12.66;79.84
64711;BME280;51139;45.626;6.850;2023-05-07T12:10:56;82040.69;;;12.62;84.17
64711;BME280;51139;45.626;6.850;2023-05-07T12:13:23;82041.69;;;12.57;88.11
64711;BME280;51139;45.626;6.850;2023-05-07T12:15:55;82057.81;;;12.19;91.79
64711;BME280;51139;45.626;6.850;2023-05-07T12:18:21;82062.41;;;11.99;92.36
64711;BME280;51139;45.626;6.850;2023-05-07T12:20:47;82059.88;;;12.50;93.12
64711;BME280;51139;45.626;6.850;2023-05-07T12:23:13;82074.97;;;11.99;99.25
64711;BME280;51139;45.626;6.850;2023-05-07T12:25:39;82073.56;;;11.88;100.00
64711;BME280;51139;45.626;6.850;2023-05-07T12:28:13;82084.72;;;11.66;100.00
64711;BME280;51139;45.626;6.850;2023-05-07T12:30:39;82084.28;;;11.50;100.00
64711;BME280;51139;45.626;6.850;2023-05-07T12:33:05;82085.66;;;11.42;100.00
64711;BME280;51139;45.626;6.850;2023-05-07T12:35:40;82096.72;;;11.11;100.00
64711;BME280;51139;45.626;6.850;2023-05-07T12:38:14;82094.88;;;11.03;100.00
64711;BME280;51139;45.626;6.850;2023-05-07T12:41:06;82099.34;;;11.48;100.00
64711;BME280;51139;45.626;6.850;2023-05-07T12:43:32;82120.97;;;10.79;100.00
64711;BME280;51139;45.626;6.850;2023-05-07T12:46:01;82109.13;;;10.80;100.00
64711;BME280;51139;45.626;6.850;2023-05-07T12:48:27;82112.06;;;10.75;100.00
64711;BME280;51139;45.626;6.850;2023-05-07T12:50:53;82114.66;;;11.02;100.00
64711;BME280;51139;45.626;6.850;2023-05-07T12:53:24;82120.53;;;10.73;100.00
64711;BME280;51139;45.626;6.850;2023-05-07T12:55:52;82120.59;;;10.83;100.00
64711;BME280;51139;45.626;6.850;2023-05-07T12:58:24;82128.53;;;11.11;100.00
64711;BME280;51139;45.626;6.850;2023-05-07T13:00:51;82130.31;;;11.45;100.00
64711;BME280;51139;45.626;6.850;2023-05-07T13:03:30;82121.19;;;11.29;100.00
64711;BME280;51139;45.626;6.850;2023-05-07T13:05:58;82120.81;;;11.42;100.00
64711;BME280;51139;45.626;6.850;2023-05-07T13:08:35;82125.81;;;11.38;100.00
64711;BME280;51139;45.626;6.850;2023-05-07T13:11:06;82125.84;;;10.73;100.00
64711;BME280;51139;45.626;6.850;2023-05-07T13:13:33;82127.81;;;11.47;100.00
64711;BME280;51139;45.626;6.850;2023-05-07T13:16:00;82119.22;;;11.86;100.00
64711;BME280;51139;45.626;6.850;2023-05-07T13:18:26;82118.78;;;11.60;100.00